sensor_id;sensor_type;location;lat;lon;timestamp;temperature;humidity
45060;DHT22;30799;49.060;9.312;2022-09-21T00:01:09;21.10;56.20
45060;DHT22;30799;49.060;9.312;2022-09-21T00:03:36;21.10;56.30
45060;DHT22;30799;49.060;9.312;2022-09-21T00:06:04;21.10;56.30
45060;DHT22;30799;49.060;9.312;2022-09-21T00:08:32;21.10;56.30
45060;DHT22;30799;49.060;9.312;2022-09-21T00:10:59;21.10;56.30
45060;DHT22;30799;49.060;9.312;2022-09-21T00:13:26;21.10;56.30
45060;DHT22;30799;49.060;9.312;2022-09-21T00:15:54;21.10;56.30
45060;DHT22;30799;49.060;9.312;2022-09-21T00:18:22;21.10;56.30
45060;DHT22;30799;49.060;9.312;2022-09-21T00:20:49;21.10;56.30
45060;DHT22;30799;49.060;9.312;2022-09-21T00:23:18;21.10;56.30
45060;DHT22;30799;49.060;9.312;2022-09-21T00:25:45;21.10;56.30
45060;DHT22;30799;49.060;9.312;2022-09-21T00:28:12;21.10;56.30
45060;DHT22;30799;49.060;9.312;2022-09-21T00:30:39;21.10;56.30
45060;DHT22;30799;49.060;9.312;2022-09-21T00:33:05;21.10;56.30
45060;DHT22;30799;49.060;9.312;2022-09-21T00:35:32;21.10;56.30
45060;DHT22;30799;49.060;9.312;2022-09-21T00:38:00;21.10;56.30
45060;DHT22;30799;49.060;9.312;2022-09-21T00:40:28;21.10;56.30
45060;DHT22;30799;49.060;9.312;2022-09-21T00:43:15;21.10;56.40
45060;DHT22;30799;49.060;9.312;2022-09-21T00:45:43;21.10;56.30
45060;DHT22;30799;49.060;9.312;2022-09-21T00:48:12;21.10;56.40
45060;DHT22;30799;49.060;9.312;2022-09-21T00:50:43;21.10;56.40
45060;DHT22;30799;49.060;9.312;2022-09-21T00:53:12;21.10;56.40
45060;DHT22;30799;49.060;9.312;2022-09-21T00:55:43;21.10;56.40
45060;DHT22;30799;49.060;9.312;2022-09-21T00:58:17;21.10;56.40
45060;DHT22;30799;49.060;9.312;2022-09-21T01:00:44;21.10;56.40
45060;DHT22;30799;49.060;9.312;2022-09-21T01:03:11;21.10;56.50
45060;DHT22;30799;49.060;9.312;2022-09-21T01:05:38;21.10;56.50
45060;DHT22;30799;49.060;9.312;2022-09-21T01:08:06;21.10;56.40
45060;DHT22;30799;49.060;9.312;2022-09-21T01:10:50;21.00;56.40
45060;DHT22;30799;49.060;9.312;2022-09-21T01:13:38;21.00;56.40
45060;DHT22;30799;49.060;9.312;2022-09-21T01:16:17;21.00;56.40
45060;DHT22;30799;49.060;9.312;2022-09-21T01:22:03;21.10;56.50
45060;DHT22;30799;49.060;9.312;2022-09-21T01:24:42;21.00;56.40
45060;DHT22;30799;49.060;9.312;2022-09-21T01:27:40;21.00;56.50
45060;DHT22;30799;49.060;9.312;2022-09-21T01:30:13;21.00;56.40
45060;DHT22;30799;49.060;9.312;2022-09-21T01:35:32;21.00;56.40
45060;DHT22;30799;49.060;9.312;2022-09-21T01:38:06;21.00;56.50
45060;DHT22;30799;49.060;9.312;2022-09-21T01:40:38;21.00;56.40
45060;DHT22;30799;49.060;9.312;2022-09-21T01:43:10;21.10;56.50
45060;DHT22;30799;49.060;9.312;2022-09-21T01:45:44;21.00;56.40
45060;DHT22;30799;49.060;9.312;2022-09-21T01:48:12;21.00;56.40
45060;DHT22;30799;49.060;9.312;2022-09-21T01:50:49;21.00;56.50
45060;DHT22;30799;49.060;9.312;2022-09-21T01:53:33;21.00;56.50
45060;DHT22;30799;49.060;9.312;2022-09-21T01:56:06;21.00;56.50
45060;DHT22;30799;49.060;9.312;2022-09-21T01:59:00;21.00;56.50
45060;DHT22;30799;49.060;9.312;2022-09-21T02:01:31;21.00;56.50
45060;DHT22;30799;49.060;9.312;2022-09-21T02:04:03;21.00;56.50
45060;DHT22;30799;49.060;9.312;2022-09-21T02:06:31;21.00;56.50
45060;DHT22;30799;49.060;9.312;2022-09-21T02:08:58;21.00;56.50
45060;DHT22;30799;49.060;9.312;2022-09-21T02:11:24;21.00;56.50
45060;DHT22;30799;49.060;9.312;2022-09-21T02:13:53;21.00;56.50
45060;DHT22;30799;49.060;9.312;2022-09-21T02:16:36;21.00;56.50
45060;DHT22;30799;49.060;9.312;2022-09-21T02:19:33;21.00;56.50
45060;DHT22;30799;49.060;9.312;2022-09-21T02:22:21;21.00;56.50
45060;DHT22;30799;49.060;9.312;2022-09-21T02:25:02;21.00;56.60
45060;DHT22;30799;49.060;9.312;2022-09-21T02:27:52;21.00;56.50
45060;DHT22;30799;49.060;9.312;2022-09-21T02:30:22;21.00;56.60
45060;DHT22;30799;49.060;9.312;2022-09-21T02:33:01;21.00;56.60
45060;DHT22;30799;49.060;9.312;2022-09-21T02:35:42;21.00;56.60
45060;DHT22;30799;49.060;9.312;2022-09-21T02:41:14;21.00;56.60
45060;DHT22;30799;49.060;9.312;2022-09-21T02:43:49;20.90;56.50
45060;DHT22;30799;49.060;9.312;2022-09-21T02:46:39;21.00;56.60
45060;DHT22;30799;49.060;9.312;2022-09-21T02:49:11;21.00;56.60
45060;DHT22;30799;49.060;9.312;2022-09-21T02:51:46;21.00;56.60
45060;DHT22;30799;49.060;9.312;2022-09-21T02:54:17;20.90;56.50
45060;DHT22;30799;49.060;9.312;2022-09-21T02:56:47;21.00;56.60
45060;DHT22;30799;49.060;9.312;2022-09-21T02:59:14;21.00;56.60
45060;DHT22;30799;49.060;9.312;2022-09-21T03:01:42;20.90;56.50
45060;DHT22;30799;49.060;9.312;2022-09-21T03:04:10;21.00;56.60
45060;DHT22;30799;49.060;9.312;2022-09-21T03:06:36;20.90;56.60
45060;DHT22;30799;49.060;9.312;2022-09-21T03:09:03;20.90;56.60
45060;DHT22;30799;49.060;9.312;2022-09-21T03:11:30;20.90;56.60
45060;DHT22;30799;49.060;9.312;2022-09-21T03:13:56;20.90;56.60
45060;DHT22;30799;49.060;9.312;2022-09-21T03:16:23;21.00;56.60
45060;DHT22;30799;49.060;9.312;2022-09-21T03:18:50;21.00;56.60
45060;DHT22;30799;49.060;9.312;2022-09-21T03:21:17;20.90;56.60
45060;DHT22;30799;49.060;9.312;2022-09-21T03:23:44;21.00;56.60
45060;DHT22;30799;49.060;9.312;2022-09-21T03:26:10;20.90;56.60
45060;DHT22;30799;49.060;9.312;2022-09-21T03:28:37;20.90;56.60
45060;DHT22;30799;49.060;9.312;2022-09-21T03:31:03;20.90;56.60
45060;DHT22;30799;49.060;9.312;2022-09-21T03:33:32;20.90;56.60
45060;DHT22;30799;49.060;9.312;2022-09-21T03:35:58;20.90;56.60
45060;DHT22;30799;49.060;9.312;2022-09-21T03:38:25;20.90;56.60
45060;DHT22;30799;49.060;9.312;2022-09-21T03:40:52;20.90;56.60
45060;DHT22;30799;49.060;9.312;2022-09-21T03:43:23;20.90;56.60
45060;DHT22;30799;49.060;9.312;2022-09-21T03:45:50;20.90;56.60
45060;DHT22;30799;49.060;9.312;2022-09-21T03:48:17;20.90;56.60
45060;DHT22;30799;49.060;9.312;2022-09-21T03:50:44;20.90;56.60
45060;DHT22;30799;49.060;9.312;2022-09-21T03:53:11;20.90;56.60
45060;DHT22;30799;49.060;9.312;2022-09-21T03:55:37;20.90;56.60
45060;DHT22;30799;49.060;9.312;2022-09-21T03:58:05;20.90;56.70
45060;DHT22;30799;49.060;9.312;2022-09-21T04:00:32;20.90;56.60
45060;DHT22;30799;49.060;9.312;2022-09-21T04:02:58;20.90;56.70
45060;DHT22;30799;49.060;9.312;2022-09-21T04:05:25;20.90;56.70
45060;DHT22;30799;49.060;9.312;2022-09-21T04:07:54;20.90;56.70
45060;DHT22;30799;49.060;9.312;2022-09-21T04:10:22;20.90;56.70
45060;DHT22;30799;49.060;9.312;2022-09-21T04:12:56;20.90;56.70
45060;DHT22;30799;49.060;9.312;2022-09-21T04:15:23;20.90;56.70
45060;DHT22;30799;49.060;9.312;2022-09-21T04:17:50;20.90;57.30
45060;DHT22;30799;49.060;9.312;2022-09-21T04:20:18;20.90;56.70
45060;DHT22;30799;49.060;9.312;2022-09-21T04:22:45;20.90;56.70
45060;DHT22;30799;49.060;9.312;2022-09-21T04:25:13;20.90;56.70
45060;DHT22;30799;49.060;9.312;2022-09-21T04:27:41;20.90;56.70
45060;DHT22;30799;49.060;9.312;2022-09-21T04:30:10;20.90;56.70
45060;DHT22;30799;49.060;9.312;2022-09-21T04:32:36;20.90;56.70
45060;DHT22;30799;49.060;9.312;2022-09-21T04:35:03;20.90;56.70
45060;DHT22;30799;49.060;9.312;2022-09-21T04:37:30;21.00;57.70
45060;DHT22;30799;49.060;9.312;2022-09-21T04:39:56;20.90;58.60
45060;DHT22;30799;49.060;9.312;2022-09-21T04:42:23;20.90;59.10
45060;DHT22;30799;49.060;9.312;2022-09-21T04:44:50;20.90;59.40
45060;DHT22;30799;49.060;9.312;2022-09-21T04:47:17;20.90;59.30
45060;DHT22;30799;49.060;9.312;2022-09-21T04:49:44;20.90;59.10
45060;DHT22;30799;49.060;9.312;2022-09-21T04:52:11;20.90;59.30
45060;DHT22;30799;49.060;9.312;2022-09-21T04:54:44;20.90;59.40
45060;DHT22;30799;49.060;9.312;2022-09-21T04:57:11;20.90;59.30
45060;DHT22;30799;49.060;9.312;2022-09-21T04:59:38;21.00;59.30
45060;DHT22;30799;49.060;9.312;2022-09-21T05:02:04;21.00;59.20
45060;DHT22;30799;49.060;9.312;2022-09-21T05:04:31;21.00;59.10
45060;DHT22;30799;49.060;9.312;2022-09-21T05:06:57;21.10;59.20
45060;DHT22;30799;49.060;9.312;2022-09-21T05:09:24;21.10;59.30
45060;DHT22;30799;49.060;9.312;2022-09-21T05:12:10;21.10;64.20
45060;DHT22;30799;49.060;9.312;2022-09-21T05:14:36;21.00;62.30
45060;DHT22;30799;49.060;9.312;2022-09-21T05:17:03;20.90;62.30
45060;DHT22;30799;49.060;9.312;2022-09-21T05:19:29;20.90;62.20
45060;DHT22;30799;49.060;9.312;2022-09-21T05:21:56;20.90;62.10
45060;DHT22;30799;49.060;9.312;2022-09-21T05:24:22;20.90;62.10
45060;DHT22;30799;49.060;9.312;2022-09-21T05:26:49;20.80;62.10
45060;DHT22;30799;49.060;9.312;2022-09-21T05:29:16;20.90;62.20
45060;DHT22;30799;49.060;9.312;2022-09-21T05:31:50;20.90;62.30
45060;DHT22;30799;49.060;9.312;2022-09-21T05:37:39;20.80;61.90
45060;DHT22;30799;49.060;9.312;2022-09-21T05:40:11;20.80;61.70
45060;DHT22;30799;49.060;9.312;2022-09-21T05:42:39;20.80;61.60
45060;DHT22;30799;49.060;9.312;2022-09-21T05:45:06;20.80;61.50
45060;DHT22;30799;49.060;9.312;2022-09-21T05:47:39;20.80;61.30
45060;DHT22;30799;49.060;9.312;2022-09-21T05:50:25;20.80;61.30
45060;DHT22;30799;49.060;9.312;2022-09-21T05:56:06;20.80;60.90
45060;DHT22;30799;49.060;9.312;2022-09-21T05:59:08;20.80;60.90
45060;DHT22;30799;49.060;9.312;2022-09-21T06:04:12;20.80;60.70
45060;DHT22;30799;49.060;9.312;2022-09-21T06:06:39;20.80;60.60
45060;DHT22;30799;49.060;9.312;2022-09-21T06:09:05;20.80;60.40
45060;DHT22;30799;49.060;9.312;2022-09-21T06:11:32;20.80;60.30
45060;DHT22;30799;49.060;9.312;2022-09-21T06:14:02;20.80;60.20
45060;DHT22;30799;49.060;9.312;2022-09-21T06:16:41;20.80;60.10
45060;DHT22;30799;49.060;9.312;2022-09-21T06:19:12;20.80;60.10
45060;DHT22;30799;49.060;9.312;2022-09-21T06:21:39;20.80;60.10
45060;DHT22;30799;49.060;9.312;2022-09-21T06:24:05;20.70;60.00
45060;DHT22;30799;49.060;9.312;2022-09-21T06:26:32;20.80;59.90
45060;DHT22;30799;49.060;9.312;2022-09-21T06:28:59;20.80;59.80
45060;DHT22;30799;49.060;9.312;2022-09-21T06:31:26;20.70;59.70
45060;DHT22;30799;49.060;9.312;2022-09-21T06:33:53;20.80;59.70
45060;DHT22;30799;49.060;9.312;2022-09-21T06:36:19;20.70;59.60
45060;DHT22;30799;49.060;9.312;2022-09-21T06:38:46;20.80;59.60
45060;DHT22;30799;49.060;9.312;2022-09-21T06:41:12;20.70;59.50
45060;DHT22;30799;49.060;9.312;2022-09-21T06:43:46;20.70;59.50
45060;DHT22;30799;49.060;9.312;2022-09-21T06:46:12;20.70;59.50
45060;DHT22;30799;49.060;9.312;2022-09-21T06:48:39;20.70;59.40
45060;DHT22;30799;49.060;9.312;2022-09-21T06:51:06;20.70;59.30
45060;DHT22;30799;49.060;9.312;2022-09-21T06:53:33;20.70;59.30
45060;DHT22;30799;49.060;9.312;2022-09-21T06:56:05;20.80;59.20
45060;DHT22;30799;49.060;9.312;2022-09-21T06:58:32;20.70;59.10
45060;DHT22;30799;49.060;9.312;2022-09-21T07:01:11;20.70;59.10
45060;DHT22;30799;49.060;9.312;2022-09-21T07:03:39;20.70;59.10
45060;DHT22;30799;49.060;9.312;2022-09-21T07:06:07;20.70;59.10
45060;DHT22;30799;49.060;9.312;2022-09-21T07:08:34;20.70;59.10
45060;DHT22;30799;49.060;9.312;2022-09-21T07:11:21;20.70;59.00
45060;DHT22;30799;49.060;9.312;2022-09-21T07:13:49;20.70;59.00
45060;DHT22;30799;49.060;9.312;2022-09-21T07:16:16;20.80;59.00
45060;DHT22;30799;49.060;9.312;2022-09-21T07:18:42;20.70;58.90
45060;DHT22;30799;49.060;9.312;2022-09-21T07:21:10;20.70;58.90
45060;DHT22;30799;49.060;9.312;2022-09-21T07:23:37;20.70;58.90
45060;DHT22;30799;49.060;9.312;2022-09-21T07:26:09;20.70;58.90
45060;DHT22;30799;49.060;9.312;2022-09-21T07:28:37;20.70;58.70
45060;DHT22;30799;49.060;9.312;2022-09-21T07:31:06;20.70;58.80
45060;DHT22;30799;49.060;9.312;2022-09-21T07:33:34;20.70;58.80
45060;DHT22;30799;49.060;9.312;2022-09-21T07:36:03;20.70;58.70
45060;DHT22;30799;49.060;9.312;2022-09-21T07:38:37;20.70;58.70
45060;DHT22;30799;49.060;9.312;2022-09-21T07:41:09;20.80;58.70
45060;DHT22;30799;49.060;9.312;2022-09-21T07:43:36;20.70;58.70
45060;DHT22;30799;49.060;9.312;2022-09-21T07:46:07;20.80;58.70
45060;DHT22;30799;49.060;9.312;2022-09-21T07:48:34;20.70;58.60
45060;DHT22;30799;49.060;9.312;2022-09-21T07:51:06;20.70;58.60
45060;DHT22;30799;49.060;9.312;2022-09-21T07:53:35;20.80;58.60
45060;DHT22;30799;49.060;9.312;2022-09-21T07:56:10;20.80;58.70
45060;DHT22;30799;49.060;9.312;2022-09-21T07:58:37;20.80;58.70
45060;DHT22;30799;49.060;9.312;2022-09-21T08:01:23;20.80;58.70
45060;DHT22;30799;49.060;9.312;2022-09-21T08:03:51;20.80;58.70
45060;DHT22;30799;49.060;9.312;2022-09-21T08:06:19;20.70;58.60
45060;DHT22;30799;49.060;9.312;2022-09-21T08:08:46;20.80;58.60
45060;DHT22;30799;49.060;9.312;2022-09-21T08:11:18;20.80;58.70
45060;DHT22;30799;49.060;9.312;2022-09-21T08:13:47;20.70;58.60
45060;DHT22;30799;49.060;9.312;2022-09-21T08:16:14;20.80;58.60
45060;DHT22;30799;49.060;9.312;2022-09-21T08:18:40;20.70;58.50
45060;DHT22;30799;49.060;9.312;2022-09-21T08:21:09;20.70;58.50
45060;DHT22;30799;49.060;9.312;2022-09-21T08:23:37;20.70;58.50
45060;DHT22;30799;49.060;9.312;2022-09-21T08:26:11;20.70;58.50
45060;DHT22;30799;49.060;9.312;2022-09-21T08:28:48;20.70;58.50
45060;DHT22;30799;49.060;9.312;2022-09-21T08:31:17;20.70;58.50
45060;DHT22;30799;49.060;9.312;2022-09-21T08:33:45;20.80;58.50
45060;DHT22;30799;49.060;9.312;2022-09-21T08:36:12;20.70;58.50
45060;DHT22;30799;49.060;9.312;2022-09-21T08:38:39;20.80;58.40
45060;DHT22;30799;49.060;9.312;2022-09-21T08:41:20;20.70;58.40
45060;DHT22;30799;49.060;9.312;2022-09-21T08:44:37;20.70;58.40
45060;DHT22;30799;49.060;9.312;2022-09-21T08:46:39;20.80;58.40
45060;DHT22;30799;49.060;9.312;2022-09-21T08:49:15;20.70;58.30
45060;DHT22;30799;49.060;9.312;2022-09-21T08:51:50;20.70;58.40
45060;DHT22;30799;49.060;9.312;2022-09-21T08:54:28;20.70;58.40
45060;DHT22;30799;49.060;9.312;2022-09-21T08:57:00;20.80;58.50
45060;DHT22;30799;49.060;9.312;2022-09-21T08:59:32;20.80;58.40
45060;DHT22;30799;49.060;9.312;2022-09-21T09:02:22;20.70;58.30
45060;DHT22;30799;49.060;9.312;2022-09-21T09:16:04;20.80;58.30
45060;DHT22;30799;49.060;9.312;2022-09-21T09:18:48;20.80;58.40
45060;DHT22;30799;49.060;9.312;2022-09-21T09:21:23;20.80;58.30
45060;DHT22;30799;49.060;9.312;2022-09-21T09:26:35;20.80;58.30
45060;DHT22;30799;49.060;9.312;2022-09-21T09:29:21;20.80;58.10
45060;DHT22;30799;49.060;9.312;2022-09-21T09:31:51;20.80;57.80
45060;DHT22;30799;49.060;9.312;2022-09-21T09:34:38;20.70;57.90
45060;DHT22;30799;49.060;9.312;2022-09-21T09:37:16;20.80;57.60
45060;DHT22;30799;49.060;9.312;2022-09-21T09:39:48;20.80;58.00
45060;DHT22;30799;49.060;9.312;2022-09-21T09:45:40;20.80;57.90
45060;DHT22;30799;49.060;9.312;2022-09-21T09:48:13;20.80;57.90
45060;DHT22;30799;49.060;9.312;2022-09-21T09:50:44;20.80;57.70
45060;DHT22;30799;49.060;9.312;2022-09-21T09:53:17;20.80;57.60
45060;DHT22;30799;49.060;9.312;2022-09-21T09:55:48;20.80;57.90
45060;DHT22;30799;49.060;9.312;2022-09-21T09:58:18;20.80;57.60
45060;DHT22;30799;49.060;9.312;2022-09-21T10:00:51;20.80;57.80
45060;DHT22;30799;49.060;9.312;2022-09-21T10:03:23;20.80;57.90
45060;DHT22;30799;49.060;9.312;2022-09-21T10:05:50;20.80;57.50
45060;DHT22;30799;49.060;9.312;2022-09-21T10:11:03;20.70;57.70
45060;DHT22;30799;49.060;9.312;2022-09-21T10:13:32;20.80;57.80
45060;DHT22;30799;49.060;9.312;2022-09-21T10:16:12;20.80;57.70
45060;DHT22;30799;49.060;9.312;2022-09-21T10:18:44;20.80;57.50
45060;DHT22;30799;49.060;9.312;2022-09-21T10:23:58;20.80;57.60
45060;DHT22;30799;49.060;9.312;2022-09-21T10:29:30;20.80;57.30
45060;DHT22;30799;49.060;9.312;2022-09-21T10:32:03;20.80;57.40
45060;DHT22;30799;49.060;9.312;2022-09-21T10:34:31;20.80;57.30
45060;DHT22;30799;49.060;9.312;2022-09-21T10:37:00;20.80;57.20
45060;DHT22;30799;49.060;9.312;2022-09-21T10:39:31;20.80;57.20
45060;DHT22;30799;49.060;9.312;2022-09-21T10:42:05;20.80;57.20
45060;DHT22;30799;49.060;9.312;2022-09-21T10:44:42;20.80;57.20
45060;DHT22;30799;49.060;9.312;2022-09-21T10:49:46;20.80;57.00
45060;DHT22;30799;49.060;9.312;2022-09-21T10:52:13;20.80;56.90
45060;DHT22;30799;49.060;9.312;2022-09-21T10:54:41;20.80;57.00
45060;DHT22;30799;49.060;9.312;2022-09-21T10:57:13;20.80;56.90
45060;DHT22;30799;49.060;9.312;2022-09-21T10:59:40;20.80;56.80
45060;DHT22;30799;49.060;9.312;2022-09-21T11:04:56;20.80;57.00
45060;DHT22;30799;49.060;9.312;2022-09-21T11:07:31;20.80;56.80
45060;DHT22;30799;49.060;9.312;2022-09-21T11:15:31;20.80;56.70
45060;DHT22;30799;49.060;9.312;2022-09-21T11:18:07;20.80;56.70
45060;DHT22;30799;49.060;9.312;2022-09-21T11:20:41;20.80;56.60
45060;DHT22;30799;49.060;9.312;2022-09-21T11:23:25;20.80;56.60
45060;DHT22;30799;49.060;9.312;2022-09-21T11:26:02;20.80;56.40
45060;DHT22;30799;49.060;9.312;2022-09-21T11:29:14;20.80;56.10
45060;DHT22;30799;49.060;9.312;2022-09-21T11:37:16;20.90;56.00
45060;DHT22;30799;49.060;9.312;2022-09-21T11:40:00;20.90;55.90
45060;DHT22;30799;49.060;9.312;2022-09-21T11:44:58;20.90;55.80
45060;DHT22;30799;49.060;9.312;2022-09-21T11:47:46;20.90;56.00
45060;DHT22;30799;49.060;9.312;2022-09-21T11:53:18;20.90;55.80
45060;DHT22;30799;49.060;9.312;2022-09-21T11:58:47;20.90;55.90
45060;DHT22;30799;49.060;9.312;2022-09-21T12:04:27;20.90;56.20
45060;DHT22;30799;49.060;9.312;2022-09-21T12:15:55;20.90;56.20
45060;DHT22;30799;49.060;9.312;2022-09-21T12:19:05;20.90;56.20
45060;DHT22;30799;49.060;9.312;2022-09-21T12:21:47;20.90;56.30
45060;DHT22;30799;49.060;9.312;2022-09-21T12:24:24;20.90;56.30
45060;DHT22;30799;49.060;9.312;2022-09-21T12:27:02;20.90;56.20
45060;DHT22;30799;49.060;9.312;2022-09-21T12:29:44;20.90;56.00
45060;DHT22;30799;49.060;9.312;2022-09-21T12:35:34;20.90;55.90
45060;DHT22;30799;49.060;9.312;2022-09-21T12:38:14;20.90;55.90
45060;DHT22;30799;49.060;9.312;2022-09-21T12:40:48;20.90;55.90
45060;DHT22;30799;49.060;9.312;2022-09-21T12:43:38;21.00;55.80
45060;DHT22;30799;49.060;9.312;2022-09-21T12:48:55;20.90;55.60
45060;DHT22;30799;49.060;9.312;2022-09-21T12:51:30;20.90;55.50
45060;DHT22;30799;49.060;9.312;2022-09-21T12:54:07;21.00;55.50
45060;DHT22;30799;49.060;9.312;2022-09-21T12:56:43;20.90;55.50
45060;DHT22;30799;49.060;9.312;2022-09-21T13:02:23;20.90;55.60
45060;DHT22;30799;49.060;9.312;2022-09-21T13:08:11;20.90;55.50
45060;DHT22;30799;49.060;9.312;2022-09-21T13:10:40;20.90;55.50
45060;DHT22;30799;49.060;9.312;2022-09-21T13:13:24;20.90;55.50
45060;DHT22;30799;49.060;9.312;2022-09-21T13:15:51;20.90;55.60
45060;DHT22;30799;49.060;9.312;2022-09-21T13:18:30;20.90;55.50
45060;DHT22;30799;49.060;9.312;2022-09-21T13:21:17;20.90;55.60
45060;DHT22;30799;49.060;9.312;2022-09-21T13:24:00;20.90;55.40
45060;DHT22;30799;49.060;9.312;2022-09-21T13:26:35;21.00;55.10
45060;DHT22;30799;49.060;9.312;2022-09-21T13:34:44;21.00;55.10
45060;DHT22;30799;49.060;9.312;2022-09-21T13:44:56;21.00;55.30
45060;DHT22;30799;49.060;9.312;2022-09-21T13:47:35;21.00;55.90
45060;DHT22;30799;49.060;9.312;2022-09-21T13:50:30;21.00;55.80
45060;DHT22;30799;49.060;9.312;2022-09-21T13:53:04;21.00;55.30
45060;DHT22;30799;49.060;9.312;2022-09-21T13:55:38;21.00;55.50
45060;DHT22;30799;49.060;9.312;2022-09-21T14:00:52;21.00;55.50
45060;DHT22;30799;49.060;9.312;2022-09-21T14:03:34;21.00;55.30
45060;DHT22;30799;49.060;9.312;2022-09-21T14:06:24;21.00;55.40
45060;DHT22;30799;49.060;9.312;2022-09-21T14:08:59;21.00;55.10
45060;DHT22;30799;49.060;9.312;2022-09-21T14:11:33;21.10;55.00
45060;DHT22;30799;49.060;9.312;2022-09-21T14:24:38;21.10;55.10
45060;DHT22;30799;49.060;9.312;2022-09-21T14:27:32;21.10;55.30
45060;DHT22;30799;49.060;9.312;2022-09-21T14:32:42;21.10;55.30
45060;DHT22;30799;49.060;9.312;2022-09-21T14:35:15;21.10;55.40
45060;DHT22;30799;49.060;9.312;2022-09-21T14:40:51;21.10;55.40
45060;DHT22;30799;49.060;9.312;2022-09-21T14:43:25;21.10;55.50
45060;DHT22;30799;49.060;9.312;2022-09-21T14:48:37;20.80;47.50
45060;DHT22;30799;49.060;9.312;2022-09-21T14:51:35;20.80;48.60
45060;DHT22;30799;49.060;9.312;2022-09-21T14:57:32;21.00;50.60
45060;DHT22;30799;49.060;9.312;2022-09-21T15:00:22;21.00;51.20
45060;DHT22;30799;49.060;9.312;2022-09-21T15:06:00;21.10;52.00
45060;DHT22;30799;49.060;9.312;2022-09-21T15:09:02;21.10;52.40
45060;DHT22;30799;49.060;9.312;2022-09-21T15:11:58;21.10;52.60
45060;DHT22;30799;49.060;9.312;2022-09-21T15:14:36;21.10;52.80
45060;DHT22;30799;49.060;9.312;2022-09-21T15:17:23;21.10;52.80
45060;DHT22;30799;49.060;9.312;2022-09-21T15:19:50;21.20;52.90
45060;DHT22;30799;49.060;9.312;2022-09-21T15:22:19;21.20;53.10
45060;DHT22;30799;49.060;9.312;2022-09-21T15:24:57;21.20;53.10
45060;DHT22;30799;49.060;9.312;2022-09-21T15:27:27;21.20;53.20
45060;DHT22;30799;49.060;9.312;2022-09-21T15:30:01;21.20;53.30
45060;DHT22;30799;49.060;9.312;2022-09-21T15:32:37;21.20;53.40
45060;DHT22;30799;49.060;9.312;2022-09-21T15:35:19;21.20;53.50
45060;DHT22;30799;49.060;9.312;2022-09-21T15:37:47;21.20;53.60
45060;DHT22;30799;49.060;9.312;2022-09-21T15:40:30;21.20;53.70
45060;DHT22;30799;49.060;9.312;2022-09-21T15:46:00;21.30;53.80
45060;DHT22;30799;49.060;9.312;2022-09-21T15:48:29;21.30;53.90
45060;DHT22;30799;49.060;9.312;2022-09-21T15:51:16;21.30;54.00
45060;DHT22;30799;49.060;9.312;2022-09-21T15:53:52;21.30;53.90
45060;DHT22;30799;49.060;9.312;2022-09-21T15:56:24;21.30;54.00
45060;DHT22;30799;49.060;9.312;2022-09-21T15:58:58;21.30;54.00
45060;DHT22;30799;49.060;9.312;2022-09-21T16:01:43;21.30;53.80
45060;DHT22;30799;49.060;9.312;2022-09-21T16:04:14;21.40;53.80
45060;DHT22;30799;49.060;9.312;2022-09-21T16:06:46;21.40;53.70
45060;DHT22;30799;49.060;9.312;2022-09-21T16:11:52;21.40;53.90
45060;DHT22;30799;49.060;9.312;2022-09-21T16:14:19;21.40;54.00
45060;DHT22;30799;49.060;9.312;2022-09-21T16:22:37;21.50;54.30
45060;DHT22;30799;49.060;9.312;2022-09-21T16:25:32;21.50;54.50
45060;DHT22;30799;49.060;9.312;2022-09-21T16:30:54;21.60;54.50
45060;DHT22;30799;49.060;9.312;2022-09-21T16:33:35;21.60;54.70
45060;DHT22;30799;49.060;9.312;2022-09-21T16:38:45;21.70;54.70
45060;DHT22;30799;49.060;9.312;2022-09-21T16:41:12;21.60;54.90
45060;DHT22;30799;49.060;9.312;2022-09-21T16:43:42;21.60;55.20
45060;DHT22;30799;49.060;9.312;2022-09-21T16:46:10;21.60;56.00
45060;DHT22;30799;49.060;9.312;2022-09-21T16:48:37;21.60;56.20
45060;DHT22;30799;49.060;9.312;2022-09-21T16:51:10;21.60;56.80
45060;DHT22;30799;49.060;9.312;2022-09-21T16:53:37;21.60;56.70
45060;DHT22;30799;49.060;9.312;2022-09-21T16:56:04;21.60;57.00
45060;DHT22;30799;49.060;9.312;2022-09-21T16:58:32;21.50;56.50
45060;DHT22;30799;49.060;9.312;2022-09-21T17:00:58;21.60;57.30
45060;DHT22;30799;49.060;9.312;2022-09-21T17:03:26;21.60;58.40
45060;DHT22;30799;49.060;9.312;2022-09-21T17:05:56;21.60;58.50
45060;DHT22;30799;49.060;9.312;2022-09-21T17:08:22;21.60;58.20
45060;DHT22;30799;49.060;9.312;2022-09-21T17:10:49;21.60;57.50
45060;DHT22;30799;49.060;9.312;2022-09-21T17:13:16;21.60;58.90
45060;DHT22;30799;49.060;9.312;2022-09-21T17:15:46;21.70;59.80
45060;DHT22;30799;49.060;9.312;2022-09-21T17:18:13;21.80;60.60
45060;DHT22;30799;49.060;9.312;2022-09-21T17:20:42;21.80;60.90
45060;DHT22;30799;49.060;9.312;2022-09-21T17:23:10;21.90;61.20
45060;DHT22;30799;49.060;9.312;2022-09-21T17:25:37;21.90;61.60
45060;DHT22;30799;49.060;9.312;2022-09-21T17:28:12;22.00;61.80
45060;DHT22;30799;49.060;9.312;2022-09-21T17:30:39;22.00;62.00
45060;DHT22;30799;49.060;9.312;2022-09-21T17:33:09;22.10;62.40
45060;DHT22;30799;49.060;9.312;2022-09-21T17:35:37;22.10;62.70
45060;DHT22;30799;49.060;9.312;2022-09-21T17:38:05;22.10;63.00
45060;DHT22;30799;49.060;9.312;2022-09-21T17:40:39;22.10;63.00
45060;DHT22;30799;49.060;9.312;2022-09-21T17:45:46;22.10;63.40
45060;DHT22;30799;49.060;9.312;2022-09-21T17:48:20;22.10;63.80
45060;DHT22;30799;49.060;9.312;2022-09-21T17:50:48;22.10;64.00
45060;DHT22;30799;49.060;9.312;2022-09-21T17:53:15;22.20;64.40
45060;DHT22;30799;49.060;9.312;2022-09-21T17:58:45;22.30;64.30
45060;DHT22;30799;49.060;9.312;2022-09-21T18:03:44;22.30;64.30
45060;DHT22;30799;49.060;9.312;2022-09-21T18:06:11;22.30;64.60
45060;DHT22;30799;49.060;9.312;2022-09-21T18:08:38;22.30;64.80
45060;DHT22;30799;49.060;9.312;2022-09-21T18:14:21;22.30;65.10
45060;DHT22;30799;49.060;9.312;2022-09-21T18:17:14;22.30;65.30
45060;DHT22;30799;49.060;9.312;2022-09-21T18:20:23;20.90;48.00
45060;DHT22;30799;49.060;9.312;2022-09-21T18:25:43;21.20;56.80
45060;DHT22;30799;49.060;9.312;2022-09-21T18:31:13;21.60;58.20
45060;DHT22;30799;49.060;9.312;2022-09-21T18:33:58;21.70;59.00
45060;DHT22;30799;49.060;9.312;2022-09-21T18:36:35;21.60;58.40
45060;DHT22;30799;49.060;9.312;2022-09-21T18:39:36;21.60;58.50
45060;DHT22;30799;49.060;9.312;2022-09-21T18:44:48;21.60;58.00
45060;DHT22;30799;49.060;9.312;2022-09-21T18:47:26;21.60;58.00
45060;DHT22;30799;49.060;9.312;2022-09-21T18:53:13;21.60;58.20
45060;DHT22;30799;49.060;9.312;2022-09-21T18:55:42;21.70;58.30
45060;DHT22;30799;49.060;9.312;2022-09-21T18:58:10;21.70;58.40